createdAt,value
2018-09-30T00:02:24.474Z,2.90
2018-09-30T00:05:28.227Z,3.47
2018-09-30T00:08:31.793Z,3.20
2018-09-30T00:11:35.421Z,3.10
2018-09-30T00:14:38.951Z,2.90
2018-09-30T00:17:42.514Z,3.20
2018-09-30T00:20:46.068Z,2.73
2018-09-30T00:24:58.349Z,2.87
2018-09-30T00:28:01.922Z,2.80
2018-09-30T00:31:05.599Z,2.80
2018-09-30T00:34:14.434Z,2.97
2018-09-30T00:37:17.936Z,3.10
2018-09-30T00:40:21.481Z,2.70
2018-09-30T00:43:25.057Z,3.07
2018-09-30T00:46:28.551Z,2.90
2018-09-30T00:49:32.101Z,3.00
2018-09-30T00:52:35.615Z,2.60
2018-09-30T00:55:39.173Z,2.93
2018-09-30T00:58:42.844Z,2.70
2018-09-30T01:01:46.363Z,3.43
2018-09-30T01:04:49.822Z,2.70
2018-09-30T01:07:53.407Z,2.70
2018-09-30T01:10:56.942Z,3.30
2018-09-30T01:14:00.487Z,3.00
2018-09-30T01:17:04.119Z,3.13
2018-09-30T01:20:07.902Z,2.90
2018-09-30T01:23:11.550Z,3.20
2018-09-30T01:26:15.117Z,3.20
2018-09-30T01:29:18.618Z,2.90
2018-09-30T01:32:22.266Z,2.70
2018-09-30T01:35:25.753Z,2.70
2018-09-30T01:38:29.419Z,3.33
2018-09-30T01:41:32.974Z,3.00
2018-09-30T01:44:36.553Z,3.00
2018-09-30T01:47:40.065Z,3.87
2018-09-30T01:50:43.574Z,3.83
2018-09-30T01:53:47.229Z,4.10
2018-09-30T01:56:50.794Z,3.37
2018-09-30T01:59:54.347Z,2.97
2018-09-30T02:02:57.894Z,3.23
2018-09-30T02:06:01.388Z,3.27
2018-09-30T02:09:05.425Z,2.87
2018-09-30T02:12:08.975Z,3.57
2018-09-30T02:15:12.673Z,3.37
2018-09-30T02:18:16.800Z,3.87
2018-09-30T02:21:20.365Z,2.90
2018-09-30T02:24:23.848Z,3.67
2018-09-30T02:27:27.699Z,3.37
2018-09-30T02:30:31.260Z,3.33
2018-09-30T02:33:34.820Z,3.10
2018-09-30T02:36:38.505Z,3.10
2018-09-30T02:39:41.969Z,3.53
2018-09-30T02:42:45.488Z,3.20
2018-09-30T02:45:49.110Z,4.27
2018-09-30T02:48:52.679Z,3.53
2018-09-30T02:51:56.278Z,3.73
2018-09-30T02:54:59.771Z,3.40
2018-09-30T02:58:03.403Z,3.60
2018-09-30T03:01:06.981Z,3.63
2018-09-30T03:04:10.913Z,3.40
2018-09-30T03:07:19.699Z,3.20
2018-09-30T03:10:23.298Z,3.40
2018-09-30T03:13:26.925Z,3.63
2018-09-30T03:16:30.582Z,3.67
2018-09-30T03:19:34.085Z,4.03
2018-09-30T03:22:37.599Z,3.50
2018-09-30T03:25:41.362Z,3.23
2018-09-30T03:28:44.880Z,3.47
2018-09-30T03:31:48.530Z,3.63
2018-09-30T03:34:52.020Z,3.30
2018-09-30T03:37:55.528Z,3.50
2018-09-30T03:40:59.241Z,4.13
2018-09-30T03:44:03.040Z,3.27
2018-09-30T03:47:06.845Z,3.53
2018-09-30T03:50:10.448Z,3.57
2018-09-30T03:53:14.019Z,4.00
2018-09-30T03:56:17.614Z,3.50
2018-09-30T03:59:21.113Z,3.10
2018-09-30T04:02:24.624Z,3.10
2018-09-30T04:05:28.203Z,3.30
2018-09-30T04:08:31.666Z,3.47
2018-09-30T04:11:35.195Z,3.27
2018-09-30T04:14:38.734Z,3.20
2018-09-30T04:17:42.275Z,3.50
2018-09-30T04:20:45.831Z,3.20
2018-09-30T04:23:53.064Z,3.67
2018-09-30T04:26:56.617Z,3.23
2018-09-30T04:30:00.666Z,3.60
2018-09-30T04:33:04.310Z,3.30
2018-09-30T04:36:07.820Z,3.50
2018-09-30T04:39:11.319Z,3.47
2018-09-30T04:42:14.844Z,3.50
2018-09-30T04:45:18.450Z,3.07
2018-09-30T04:48:22.219Z,3.33
2018-09-30T04:51:25.701Z,3.43
2018-09-30T04:54:29.205Z,3.37
2018-09-30T04:57:32.789Z,3.73
2018-09-30T05:00:36.464Z,3.60
2018-09-30T05:03:40.408Z,3.40
2018-09-30T05:06:43.918Z,3.30
2018-09-30T05:09:47.521Z,3.37
2018-09-30T05:12:51.078Z,3.60
2018-09-30T05:15:55.378Z,3.70
2018-09-30T05:18:58.838Z,3.60
2018-09-30T05:22:02.491Z,3.47
2018-09-30T05:25:06.061Z,3.50
2018-09-30T05:28:09.659Z,3.93
2018-09-30T05:31:13.188Z,3.40
2018-09-30T05:34:16.664Z,3.40
2018-09-30T05:37:20.241Z,3.57
2018-09-30T05:40:23.821Z,3.97
2018-09-30T05:43:27.399Z,3.33
2018-09-30T05:46:31.180Z,3.70
2018-09-30T05:49:34.676Z,3.57
2018-09-30T05:52:38.332Z,3.33
2018-09-30T05:55:42.021Z,3.60
2018-09-30T05:58:45.631Z,3.50
2018-09-30T06:01:49.208Z,3.07
2018-09-30T06:04:52.881Z,3.60
2018-09-30T06:07:56.541Z,3.77
2018-09-30T06:11:00.195Z,3.50
2018-09-30T06:14:03.855Z,3.33
2018-09-30T06:17:07.516Z,3.23
2018-09-30T06:20:11.213Z,2.77
2018-09-30T06:23:14.761Z,3.00
2018-09-30T06:26:18.320Z,3.60
2018-09-30T06:29:22.225Z,3.13
2018-09-30T06:32:26.587Z,3.50
2018-09-30T06:35:30.093Z,3.27
2018-09-30T06:38:33.655Z,3.47
2018-09-30T06:41:37.382Z,3.57
2018-09-30T06:44:40.910Z,3.50
2018-09-30T06:47:44.556Z,3.60
2018-09-30T06:50:48.126Z,3.83
2018-09-30T06:53:51.604Z,2.93
2018-09-30T06:56:55.207Z,3.30
2018-09-30T06:59:58.765Z,3.50
2018-09-30T07:03:02.415Z,3.27
2018-09-30T07:06:05.973Z,3.60
2018-09-30T07:09:09.764Z,3.93
2018-09-30T07:12:13.569Z,4.67
2018-09-30T07:15:17.192Z,3.50
2018-09-30T07:18:20.932Z,3.00
2018-09-30T07:21:24.532Z,3.10
2018-09-30T07:24:28.172Z,3.60
2018-09-30T07:27:32.476Z,3.70
2018-09-30T07:30:36.196Z,3.80
2018-09-30T07:33:40.504Z,3.10
2018-09-30T07:36:43.994Z,3.13
2018-09-30T07:39:47.618Z,3.13
2018-09-30T07:42:51.553Z,4.00
2018-09-30T07:45:55.146Z,3.87
2018-09-30T07:48:58.757Z,4.10
2018-09-30T07:52:02.356Z,3.40
2018-09-30T07:55:06.003Z,3.70
2018-09-30T07:58:09.544Z,3.90
2018-09-30T08:01:13.113Z,3.70
2018-09-30T08:04:16.781Z,3.47
2018-09-30T08:07:20.273Z,3.57
2018-09-30T08:10:23.885Z,3.53
2018-09-30T08:13:27.515Z,3.97
2018-09-30T08:16:31.337Z,4.53
2018-09-30T08:19:34.872Z,3.77
2018-09-30T08:22:38.520Z,3.80
2018-09-30T08:25:42.032Z,3.40
2018-09-30T08:28:45.671Z,3.40
2018-09-30T08:31:49.228Z,3.50
2018-09-30T08:34:53.006Z,3.63
2018-09-30T08:38:01.640Z,3.50
2018-09-30T08:41:08.213Z,4.10
2018-09-30T08:44:11.852Z,4.07
2018-09-30T08:47:15.606Z,4.47
2018-09-30T08:50:19.206Z,3.67
2018-09-30T08:53:23.303Z,4.07
2018-09-30T08:56:26.869Z,4.40
2018-09-30T08:59:30.402Z,4.20
2018-09-30T09:02:34.031Z,5.27
2018-09-30T09:05:38.525Z,4.60
2018-09-30T09:08:42.131Z,4.37
2018-09-30T09:11:45.768Z,3.83
2018-09-30T09:14:49.377Z,3.90
2018-09-30T09:17:53.009Z,4.20
2018-09-30T09:20:56.650Z,4.50
2018-09-30T09:24:00.326Z,4.50
2018-09-30T09:27:04.140Z,4.60
2018-09-30T09:30:08.059Z,4.27
2018-09-30T09:33:11.658Z,4.53
2018-09-30T09:36:15.233Z,4.20
2018-09-30T09:39:19.013Z,4.90
2018-09-30T09:42:22.605Z,4.43
2018-09-30T09:45:26.215Z,3.80
2018-09-30T09:48:29.852Z,4.23
2018-09-30T09:51:33.555Z,5.33
2018-09-30T09:54:37.137Z,4.40
2018-09-30T09:57:40.889Z,5.17
2018-09-30T10:00:45.793Z,4.27
2018-09-30T10:03:49.506Z,4.37
2018-09-30T10:06:53.150Z,4.03
2018-09-30T10:09:56.910Z,4.60
2018-09-30T10:13:00.918Z,4.60
2018-09-30T10:16:04.860Z,4.77
2018-09-30T10:19:08.741Z,4.33
2018-09-30T10:22:12.445Z,4.43
2018-09-30T10:25:16.159Z,5.00
2018-09-30T10:28:19.941Z,4.27
2018-09-30T10:31:23.613Z,3.97
2018-09-30T10:34:27.317Z,4.77
2018-09-30T10:37:30.966Z,4.57
2018-09-30T10:40:34.687Z,4.63
2018-09-30T10:43:38.453Z,3.57
2018-09-30T10:46:42.092Z,4.77
2018-09-30T10:49:46.229Z,4.30
2018-09-30T10:52:49.969Z,4.80
2018-09-30T10:55:53.753Z,3.50
2018-09-30T10:58:57.522Z,4.80
2018-09-30T11:02:01.235Z,3.53
2018-09-30T11:05:04.899Z,3.73
2018-09-30T11:08:08.575Z,4.50
2018-09-30T11:11:12.159Z,4.03
2018-09-30T11:14:15.851Z,4.40
2018-09-30T11:17:19.584Z,4.70
2018-09-30T11:20:23.341Z,4.70
2018-09-30T11:23:26.998Z,5.00
2018-09-30T11:26:30.636Z,4.23
2018-09-30T11:29:34.315Z,4.50
2018-09-30T11:32:38.129Z,4.10
2018-09-30T11:35:41.720Z,4.33
2018-09-30T11:38:45.430Z,4.20
2018-09-30T11:41:49.105Z,4.03
2018-09-30T11:44:52.807Z,4.20
2018-09-30T11:47:56.740Z,4.80
2018-09-30T11:51:00.420Z,4.80
2018-09-30T11:54:04.855Z,4.10
2018-09-30T11:57:08.651Z,4.80
2018-09-30T12:00:12.464Z,4.50
2018-09-30T12:03:16.137Z,4.20
2018-09-30T12:06:20.106Z,4.13
2018-09-30T12:09:23.707Z,4.40
2018-09-30T12:12:27.354Z,4.30
2018-09-30T12:15:31.037Z,4.10
2018-09-30T12:18:34.623Z,4.90
2018-09-30T12:21:38.372Z,4.87
2018-09-30T12:24:41.910Z,4.67
2018-09-30T12:27:45.454Z,4.20
2018-09-30T12:30:49.067Z,4.80
2018-09-30T12:33:52.780Z,4.87
2018-09-30T12:36:56.392Z,3.90
2018-09-30T12:40:00.019Z,4.10
2018-09-30T12:43:10.125Z,4.40
2018-09-30T12:46:14.145Z,3.57
2018-09-30T12:49:17.790Z,4.47
2018-09-30T12:52:21.398Z,5.10
2018-09-30T12:55:25.132Z,4.30
2018-09-30T12:58:28.690Z,4.10
2018-09-30T13:01:32.286Z,5.10
2018-09-30T13:04:35.779Z,5.17
2018-09-30T13:07:39.453Z,4.50
2018-09-30T13:10:42.936Z,4.20
2018-09-30T13:13:46.529Z,4.20
2018-09-30T13:16:50.175Z,5.20
2018-09-30T13:19:53.726Z,4.30
2018-09-30T13:22:57.281Z,4.30
2018-09-30T13:26:00.786Z,4.50
2018-09-30T13:29:04.436Z,4.50
2018-09-30T13:32:07.987Z,4.57
2018-09-30T13:35:11.558Z,4.23
2018-09-30T13:38:15.079Z,4.70
2018-09-30T13:41:18.807Z,4.50
2018-09-30T13:44:22.481Z,4.67
2018-09-30T13:47:26.121Z,4.03
2018-09-30T13:50:29.589Z,3.70
2018-09-30T13:53:33.176Z,4.40
2018-09-30T13:56:36.722Z,4.93
2018-09-30T13:59:40.307Z,4.77
2018-09-30T14:02:43.838Z,4.43
2018-09-30T14:05:47.563Z,4.90
2018-09-30T14:08:51.152Z,4.30
2018-09-30T14:11:54.622Z,4.67
2018-09-30T14:14:58.849Z,4.03
2018-09-30T14:18:02.313Z,3.77
2018-09-30T14:21:05.940Z,4.60
2018-09-30T14:24:09.693Z,4.40
2018-09-30T14:27:13.532Z,4.50
2018-09-30T14:30:17.064Z,4.30
2018-09-30T14:33:20.675Z,4.20
2018-09-30T14:36:25.167Z,3.40
2018-09-30T14:39:28.737Z,4.40
2018-09-30T14:42:32.328Z,3.30
2018-09-30T14:45:35.807Z,4.17
2018-09-30T14:48:39.461Z,5.30
2018-09-30T14:51:43.060Z,5.33
2018-09-30T14:54:46.579Z,4.90
2018-09-30T14:57:50.176Z,4.60
2018-09-30T15:00:53.684Z,5.23
2018-09-30T15:03:57.253Z,4.10
2018-09-30T15:07:00.850Z,5.20
2018-09-30T15:10:04.581Z,4.83
2018-09-30T15:13:08.212Z,5.10
2018-09-30T15:16:12.026Z,4.47
2018-09-30T15:19:15.542Z,5.03
2018-09-30T15:22:19.046Z,4.27
2018-09-30T15:25:22.644Z,3.40
2018-09-30T15:28:26.146Z,3.63
2018-09-30T15:31:29.689Z,3.70
2018-09-30T15:34:33.373Z,3.93
2018-09-30T15:37:37.032Z,4.20
2018-09-30T15:40:40.622Z,4.30
2018-09-30T15:43:47.149Z,3.53
2018-09-30T15:46:50.700Z,4.87
2018-09-30T15:49:54.306Z,4.17
2018-09-30T15:52:57.890Z,3.90
2018-09-30T15:56:01.573Z,4.30
2018-09-30T15:59:05.123Z,4.70
2018-09-30T16:02:08.840Z,4.30
2018-09-30T16:05:12.455Z,4.60
2018-09-30T16:08:15.943Z,4.10
2018-09-30T16:11:19.600Z,4.60
2018-09-30T16:14:23.170Z,4.53
2018-09-30T16:17:26.758Z,4.50
2018-09-30T16:20:30.329Z,5.50
2018-09-30T16:23:34.236Z,4.73
2018-09-30T16:26:37.863Z,4.93
2018-09-30T16:29:41.506Z,5.00
2018-09-30T16:32:45.020Z,5.07
2018-09-30T16:35:48.568Z,5.03
2018-09-30T16:38:52.167Z,4.20
2018-09-30T16:41:55.736Z,4.93
2018-09-30T16:44:59.367Z,5.70
2018-09-30T16:48:03.072Z,4.67
2018-09-30T16:51:07.092Z,4.60
2018-09-30T16:54:10.815Z,5.33
2018-09-30T16:57:14.408Z,4.90
2018-09-30T17:00:18.112Z,4.60
2018-09-30T17:03:21.885Z,4.70
2018-09-30T17:06:25.467Z,4.20
2018-09-30T17:09:29.104Z,4.37
2018-09-30T17:12:32.744Z,4.60
2018-09-30T17:15:36.443Z,4.20
2018-09-30T17:18:40.020Z,4.33
2018-09-30T17:21:43.735Z,7.07
2018-09-30T17:24:50.229Z,5.20
2018-09-30T17:27:53.904Z,4.43
2018-09-30T17:30:57.496Z,5.10
2018-09-30T17:34:01.077Z,4.70
2018-09-30T17:37:04.803Z,4.10
2018-09-30T17:40:08.587Z,5.40
2018-09-30T17:43:12.172Z,5.57
2018-09-30T17:46:15.873Z,5.23
2018-09-30T17:49:19.465Z,5.00
2018-09-30T17:52:23.291Z,5.43
2018-09-30T17:55:26.974Z,5.23
2018-09-30T17:58:30.718Z,5.60
2018-09-30T18:01:34.442Z,5.57
2018-09-30T18:04:38.030Z,5.80
2018-09-30T18:07:41.657Z,6.30
2018-09-30T18:10:45.249Z,6.20
2018-09-30T18:13:48.814Z,5.00
2018-09-30T18:16:52.605Z,5.63
2018-09-30T18:19:56.316Z,6.10
2018-09-30T18:22:59.958Z,5.80
2018-09-30T18:26:03.556Z,5.70
2018-09-30T18:29:07.530Z,5.50
2018-09-30T18:32:11.232Z,5.30
2018-09-30T18:35:15.177Z,6.40
2018-09-30T18:38:19.140Z,5.90
2018-09-30T18:41:23.121Z,6.80
2018-09-30T18:44:27.089Z,6.83
2018-09-30T18:47:30.936Z,6.20
2018-09-30T18:50:35.185Z,5.90
2018-09-30T18:53:39.223Z,6.30
2018-09-30T18:56:44.323Z,6.20
2018-09-30T18:59:48.205Z,6.60
2018-09-30T19:02:52.360Z,6.73
2018-09-30T19:05:56.280Z,6.47
2018-09-30T19:09:00.356Z,6.33
2018-09-30T19:12:04.623Z,7.07
2018-09-30T19:15:08.668Z,6.20
2018-09-30T19:18:12.641Z,7.00
2018-09-30T19:21:16.606Z,7.20
2018-09-30T19:24:20.370Z,7.20
2018-09-30T19:27:24.083Z,6.70
2018-09-30T19:30:27.786Z,6.80
2018-09-30T19:33:31.506Z,7.10
2018-09-30T19:36:35.217Z,6.80
2018-09-30T19:39:38.857Z,6.87
2018-09-30T19:42:42.597Z,6.80
2018-09-30T19:45:46.199Z,7.80
2018-09-30T19:48:50.136Z,6.67
2018-09-30T19:51:53.707Z,6.93
2018-09-30T19:54:57.355Z,7.80
2018-09-30T19:58:00.968Z,7.53
2018-09-30T20:01:04.802Z,7.93
2018-09-30T20:04:08.474Z,6.27
2018-09-30T20:07:12.185Z,6.00
2018-09-30T20:10:15.800Z,6.10
2018-09-30T20:13:19.511Z,6.30
2018-09-30T20:16:23.236Z,6.60
2018-09-30T20:19:26.863Z,7.07
2018-09-30T20:22:30.484Z,6.13
2018-09-30T20:25:40.389Z,7.07
2018-09-30T20:28:44.033Z,8.00
2018-09-30T20:31:47.655Z,8.03
2018-09-30T20:34:51.299Z,7.40
2018-09-30T20:37:54.923Z,7.90
2018-09-30T20:40:58.618Z,7.27
2018-09-30T20:44:02.254Z,7.20
2018-09-30T20:47:05.989Z,7.10
2018-09-30T20:50:09.626Z,7.90
2018-09-30T20:53:13.291Z,7.70
2018-09-30T20:56:17.063Z,8.13
2018-09-30T20:59:20.626Z,7.50
2018-09-30T21:02:24.297Z,7.47
2018-09-30T21:05:39.215Z,7.90
2018-09-30T21:08:43.237Z,7.57
2018-09-30T21:11:47.006Z,8.13
2018-09-30T21:14:50.552Z,8.07
2018-09-30T21:17:54.136Z,8.03
2018-09-30T21:20:57.736Z,8.17
2018-09-30T21:24:01.271Z,8.23
2018-09-30T21:27:04.950Z,8.40
2018-09-30T21:30:08.587Z,8.70
2018-09-30T21:33:12.225Z,8.77
2018-09-30T21:36:15.780Z,8.73
2018-09-30T21:39:19.355Z,9.17
2018-09-30T21:42:22.838Z,8.73
2018-09-30T21:45:26.388Z,9.27
2018-09-30T21:48:29.988Z,8.93
2018-09-30T21:51:33.798Z,9.57
2018-09-30T21:54:37.418Z,10.40
2018-09-30T21:57:40.991Z,9.90
2018-09-30T22:01:00.186Z,9.30
2018-09-30T22:04:03.836Z,9.60
2018-09-30T22:07:07.640Z,9.23
2018-09-30T22:10:11.252Z,9.50
2018-09-30T22:13:14.958Z,8.90
2018-09-30T22:16:18.567Z,9.87
2018-09-30T22:19:22.149Z,9.10
2018-09-30T22:22:25.725Z,9.03
2018-09-30T22:25:29.259Z,9.67
2018-09-30T22:28:32.873Z,8.80
2018-09-30T22:31:36.473Z,10.20
2018-09-30T22:34:39.984Z,10.60
2018-09-30T22:37:43.502Z,10.53
2018-09-30T22:40:47.033Z,11.10
2018-09-30T22:43:50.587Z,10.40
2018-09-30T22:46:54.091Z,11.23
2018-09-30T22:49:57.641Z,10.83
2018-09-30T22:53:01.176Z,10.10
2018-09-30T22:56:04.703Z,11.50
2018-09-30T22:59:08.218Z,12.17
2018-09-30T23:02:11.732Z,10.53
2018-09-30T23:05:15.346Z,10.07
2018-09-30T23:08:18.903Z,9.53
2018-09-30T23:11:22.472Z,8.40
2018-09-30T23:14:25.971Z,8.17
2018-09-30T23:17:29.503Z,7.33
2018-09-30T23:20:33.028Z,7.23
2018-09-30T23:23:36.607Z,7.93
2018-09-30T23:26:40.238Z,7.17
2018-09-30T23:29:43.739Z,7.47
2018-09-30T23:32:47.162Z,7.07
2018-09-30T23:35:50.664Z,6.47
2018-09-30T23:38:54.372Z,6.97
2018-09-30T23:41:57.954Z,5.80
2018-09-30T23:45:01.497Z,5.63
2018-09-30T23:48:05.047Z,6.23
2018-09-30T23:51:08.571Z,6.07
2018-09-30T23:54:12.293Z,6.80
2018-09-30T23:57:15.788Z,5.80
